sensor_id;sensor_type;location;lat;lon;timestamp;pressure;altitude;pressure_sealevel;temperature;humidity
33496;BME280;19836;55.812;37.560;2022-12-20T00:01:37;100746.06;;;-0.98;76.09
33496;BME280;19836;55.812;37.560;2022-12-20T00:04:04;100743.56;;;-0.95;76.10
33496;BME280;19836;55.812;37.560;2022-12-20T00:06:30;100744.38;;;-0.96;75.88
33496;BME280;19836;55.812;37.560;2022-12-20T00:09:00;100738.88;;;-1.04;75.53
33496;BME280;19836;55.812;37.560;2022-12-20T00:11:28;100734.38;;;-1.08;75.70
33496;BME280;19836;55.812;37.560;2022-12-20T00:13:56;100745.69;;;-1.10;75.74
33496;BME280;19836;55.812;37.560;2022-12-20T00:16:24;100743.16;;;-1.07;75.78
33496;BME280;19836;55.812;37.560;2022-12-20T00:18:53;100753.59;;;-1.09;75.61
33496;BME280;19836;55.812;37.560;2022-12-20T00:21:21;100751.81;;;-1.10;75.72
33496;BME280;19836;55.812;37.560;2022-12-20T00:23:47;100757.94;;;-1.11;75.84
33496;BME280;19836;55.812;37.560;2022-12-20T00:26:16;100743.00;;;-1.12;75.58
33496;BME280;19836;55.812;37.560;2022-12-20T00:28:43;100748.94;;;-1.17;75.49
33496;BME280;19836;55.812;37.560;2022-12-20T00:31:12;100748.56;;;-1.29;75.20
33496;BME280;19836;55.812;37.560;2022-12-20T00:33:39;100735.97;;;-1.39;75.23
33496;BME280;19836;55.812;37.560;2022-12-20T00:36:08;100740.06;;;-1.47;75.19
33496;BME280;19836;55.812;37.560;2022-12-20T00:38:34;100738.94;;;-1.55;74.96
33496;BME280;19836;55.812;37.560;2022-12-20T00:43:28;100725.81;;;-1.55;74.85
33496;BME280;19836;55.812;37.560;2022-12-20T00:45:54;100722.94;;;-1.61;75.20
33496;BME280;19836;55.812;37.560;2022-12-20T00:48:21;100712.34;;;-1.64;75.13
33496;BME280;19836;55.812;37.560;2022-12-20T00:50:46;100703.69;;;-1.62;74.92
33496;BME280;19836;55.812;37.560;2022-12-20T00:53:13;100703.03;;;-1.55;75.16
33496;BME280;19836;55.812;37.560;2022-12-20T00:55:45;100694.16;;;-1.58;75.09
33496;BME280;19836;55.812;37.560;2022-12-20T00:58:24;100687.06;;;-1.61;75.35
33496;BME280;19836;55.812;37.560;2022-12-20T01:00:56;100681.13;;;-1.55;75.38
33496;BME280;19836;55.812;37.560;2022-12-20T01:03:25;100679.44;;;-1.53;75.31
33496;BME280;19836;55.812;37.560;2022-12-20T01:06:04;100680.34;;;-1.52;75.08
33496;BME280;19836;55.812;37.560;2022-12-20T01:08:30;100688.06;;;-1.57;75.10
33496;BME280;19836;55.812;37.560;2022-12-20T01:11:03;100702.84;;;-1.61;75.08
33496;BME280;19836;55.812;37.560;2022-12-20T01:13:32;100691.22;;;-1.67;75.32
33496;BME280;19836;55.812;37.560;2022-12-20T01:16:14;100689.25;;;-1.74;75.44
33496;BME280;19836;55.812;37.560;2022-12-20T01:18:47;100710.16;;;-1.77;75.54
33496;BME280;19836;55.812;37.560;2022-12-20T01:21:19;100695.34;;;-1.75;75.65
33496;BME280;19836;55.812;37.560;2022-12-20T01:23:49;100679.78;;;-1.69;75.51
33496;BME280;19836;55.812;37.560;2022-12-20T01:26:24;100683.41;;;-1.66;75.55
33496;BME280;19836;55.812;37.560;2022-12-20T01:28:59;100691.41;;;-1.61;75.37
33496;BME280;19836;55.812;37.560;2022-12-20T01:31:27;100681.03;;;-1.58;75.54
33496;BME280;19836;55.812;37.560;2022-12-20T01:33:53;100669.72;;;-1.56;75.72
33496;BME280;19836;55.812;37.560;2022-12-20T01:36:32;100684.38;;;-1.62;75.43
33496;BME280;19836;55.812;37.560;2022-12-20T01:39:11;100677.25;;;-1.66;75.34
33496;BME280;19836;55.812;37.560;2022-12-20T01:41:42;100681.50;;;-1.70;75.35
33496;BME280;19836;55.812;37.560;2022-12-20T01:46:46;100673.69;;;-1.68;75.29
33496;BME280;19836;55.812;37.560;2022-12-20T01:49:31;100660.41;;;-1.73;75.70
33496;BME280;19836;55.812;37.560;2022-12-20T01:52:29;100664.91;;;-1.69;75.50
33496;BME280;19836;55.812;37.560;2022-12-20T01:55:21;100661.34;;;-1.71;75.57
33496;BME280;19836;55.812;37.560;2022-12-20T01:58:09;100659.63;;;-1.70;75.50
33496;BME280;19836;55.812;37.560;2022-12-20T02:00:39;100656.94;;;-1.72;75.50
33496;BME280;19836;55.812;37.560;2022-12-20T02:03:11;100660.19;;;-1.79;75.42
33496;BME280;19836;55.812;37.560;2022-12-20T02:05:43;100650.19;;;-1.90;75.01
33496;BME280;19836;55.812;37.560;2022-12-20T02:08:16;100645.63;;;-1.96;75.06
33496;BME280;19836;55.812;37.560;2022-12-20T02:14:07;100655.88;;;-2.03;74.88
33496;BME280;19836;55.812;37.560;2022-12-20T02:17:02;100636.03;;;-2.20;74.58
33496;BME280;19836;55.812;37.560;2022-12-20T02:19:53;100644.50;;;-2.27;74.93
33496;BME280;19836;55.812;37.560;2022-12-20T02:22:54;100634.75;;;-2.31;74.59
33496;BME280;19836;55.812;37.560;2022-12-20T02:31:21;100628.50;;;-2.35;74.61
33496;BME280;19836;55.812;37.560;2022-12-20T02:33:56;100618.00;;;-2.35;74.52
33496;BME280;19836;55.812;37.560;2022-12-20T02:36:28;100602.06;;;-2.41;74.42
33496;BME280;19836;55.812;37.560;2022-12-20T02:39:00;100612.41;;;-2.45;74.88
33496;BME280;19836;55.812;37.560;2022-12-20T02:41:42;100606.13;;;-2.50;74.64
33496;BME280;19836;55.812;37.560;2022-12-20T02:44:17;100602.66;;;-2.49;74.75
33496;BME280;19836;55.812;37.560;2022-12-20T02:47:10;100601.75;;;-2.50;74.67
33496;BME280;19836;55.812;37.560;2022-12-20T02:49:48;100598.84;;;-2.57;74.23
33496;BME280;19836;55.812;37.560;2022-12-20T02:52:32;100600.41;;;-2.62;74.24
33496;BME280;19836;55.812;37.560;2022-12-20T02:55:25;100600.94;;;-2.72;73.70
33496;BME280;19836;55.812;37.560;2022-12-20T02:58:14;100584.03;;;-2.80;73.79
33496;BME280;19836;55.812;37.560;2022-12-20T03:00:50;100584.84;;;-2.83;73.87
33496;BME280;19836;55.812;37.560;2022-12-20T03:03:25;100578.59;;;-2.86;73.92
33496;BME280;19836;55.812;37.560;2022-12-20T03:06:00;100580.16;;;-2.91;73.95
33496;BME280;19836;55.812;37.560;2022-12-20T03:08:33;100584.44;;;-2.93;73.59
33496;BME280;19836;55.812;37.560;2022-12-20T03:11:02;100573.06;;;-2.93;74.01
33496;BME280;19836;55.812;37.560;2022-12-20T03:13:31;100565.25;;;-2.92;73.41
33496;BME280;19836;55.812;37.560;2022-12-20T03:16:07;100561.75;;;-2.92;73.59
33496;BME280;19836;55.812;37.560;2022-12-20T03:18:36;100550.34;;;-2.93;73.21
33496;BME280;19836;55.812;37.560;2022-12-20T03:21:03;100549.25;;;-3.00;73.05
33496;BME280;19836;55.812;37.560;2022-12-20T03:23:30;100547.53;;;-2.99;73.01
33496;BME280;19836;55.812;37.560;2022-12-20T03:25:56;100549.94;;;-3.05;73.16
33496;BME280;19836;55.812;37.560;2022-12-20T03:28:31;100545.47;;;-3.08;73.00
33496;BME280;19836;55.812;37.560;2022-12-20T03:30:57;100543.41;;;-3.16;72.91
33496;BME280;19836;55.812;37.560;2022-12-20T03:33:23;100538.09;;;-3.17;72.62
33496;BME280;19836;55.812;37.560;2022-12-20T03:35:50;100532.66;;;-3.23;72.21
33496;BME280;19836;55.812;37.560;2022-12-20T03:38:17;100537.06;;;-3.22;72.48
33496;BME280;19836;55.812;37.560;2022-12-20T03:40:43;100523.81;;;-3.26;71.39
33496;BME280;19836;55.812;37.560;2022-12-20T03:43:12;100524.50;;;-3.31;70.88
33496;BME280;19836;55.812;37.560;2022-12-20T03:45:38;100524.16;;;-3.40;70.91
33496;BME280;19836;55.812;37.560;2022-12-20T03:48:04;100516.13;;;-3.45;70.39
33496;BME280;19836;55.812;37.560;2022-12-20T03:50:32;100512.50;;;-3.48;70.74
33496;BME280;19836;55.812;37.560;2022-12-20T03:52:59;100502.88;;;-3.49;70.64
33496;BME280;19836;55.812;37.560;2022-12-20T03:55:25;100503.72;;;-3.50;70.58
33496;BME280;19836;55.812;37.560;2022-12-20T03:57:51;100499.41;;;-3.48;70.17
33496;BME280;19836;55.812;37.560;2022-12-20T04:00:25;100495.84;;;-3.50;69.13
33496;BME280;19836;55.812;37.560;2022-12-20T04:02:57;100485.38;;;-3.50;68.99
33496;BME280;19836;55.812;37.560;2022-12-20T04:05:26;100486.22;;;-3.51;69.00
33496;BME280;19836;55.812;37.560;2022-12-20T04:07:52;100491.41;;;-3.53;68.84
33496;BME280;19836;55.812;37.560;2022-12-20T04:10:18;100480.13;;;-3.50;68.65
33496;BME280;19836;55.812;37.560;2022-12-20T04:12:44;100474.06;;;-3.49;68.38
33496;BME280;19836;55.812;37.560;2022-12-20T04:15:13;100479.31;;;-3.49;68.31
33496;BME280;19836;55.812;37.560;2022-12-20T04:17:40;100470.53;;;-3.50;68.14
33496;BME280;19836;55.812;37.560;2022-12-20T04:20:12;100477.53;;;-3.50;68.23
33496;BME280;19836;55.812;37.560;2022-12-20T04:22:50;100467.75;;;-3.54;68.08
33496;BME280;19836;55.812;37.560;2022-12-20T04:25:18;100474.91;;;-3.50;68.07
33496;BME280;19836;55.812;37.560;2022-12-20T04:27:45;100461.03;;;-3.47;67.71
33496;BME280;19836;55.812;37.560;2022-12-20T04:30:12;100464.53;;;-3.47;67.34
33496;BME280;19836;55.812;37.560;2022-12-20T04:32:38;100466.34;;;-3.46;67.28
33496;BME280;19836;55.812;37.560;2022-12-20T04:35:04;100468.81;;;-3.49;66.63
33496;BME280;19836;55.812;37.560;2022-12-20T04:37:36;100466.34;;;-3.45;66.63
33496;BME280;19836;55.812;37.560;2022-12-20T04:40:03;100459.47;;;-3.42;67.21
33496;BME280;19836;55.812;37.560;2022-12-20T04:42:43;100459.53;;;-3.41;66.43
33496;BME280;19836;55.812;37.560;2022-12-20T04:45:11;100459.41;;;-3.44;66.02
33496;BME280;19836;55.812;37.560;2022-12-20T04:47:37;100468.69;;;-3.52;65.82
33496;BME280;19836;55.812;37.560;2022-12-20T04:50:06;100458.84;;;-3.59;65.80
33496;BME280;19836;55.812;37.560;2022-12-20T04:52:32;100463.97;;;-3.62;65.58
33496;BME280;19836;55.812;37.560;2022-12-20T04:55:19;100451.72;;;-3.63;65.65
33496;BME280;19836;55.812;37.560;2022-12-20T04:57:45;100462.91;;;-3.67;65.72
33496;BME280;19836;55.812;37.560;2022-12-20T05:00:12;100450.59;;;-3.70;65.58
33496;BME280;19836;55.812;37.560;2022-12-20T05:02:43;100445.19;;;-3.74;65.27
33496;BME280;19836;55.812;37.560;2022-12-20T05:05:12;100444.25;;;-3.76;65.03
33496;BME280;19836;55.812;37.560;2022-12-20T05:07:45;100446.13;;;-3.72;65.19
33496;BME280;19836;55.812;37.560;2022-12-20T05:10:11;100438.34;;;-3.71;65.18
33496;BME280;19836;55.812;37.560;2022-12-20T05:12:39;100436.63;;;-3.70;65.48
33496;BME280;19836;55.812;37.560;2022-12-20T05:15:10;100437.69;;;-3.65;65.41
33496;BME280;19836;55.812;37.560;2022-12-20T05:17:37;100434.34;;;-3.61;65.32
33496;BME280;19836;55.812;37.560;2022-12-20T05:20:05;100431.75;;;-3.60;65.56
33496;BME280;19836;55.812;37.560;2022-12-20T05:22:31;100425.59;;;-3.62;65.14
33496;BME280;19836;55.812;37.560;2022-12-20T05:25:16;100419.56;;;-3.59;65.14
33496;BME280;19836;55.812;37.560;2022-12-20T05:28:04;100425.81;;;-3.56;64.99
33496;BME280;19836;55.812;37.560;2022-12-20T05:30:34;100423.19;;;-3.56;65.02
33496;BME280;19836;55.812;37.560;2022-12-20T05:33:00;100408.25;;;-3.58;64.97
33496;BME280;19836;55.812;37.560;2022-12-20T05:35:27;100406.47;;;-3.59;64.90
33496;BME280;19836;55.812;37.560;2022-12-20T05:38:00;100402.94;;;-3.61;64.84
33496;BME280;19836;55.812;37.560;2022-12-20T05:40:30;100393.38;;;-3.59;64.23
33496;BME280;19836;55.812;37.560;2022-12-20T05:42:57;100384.53;;;-3.63;64.13
33496;BME280;19836;55.812;37.560;2022-12-20T05:45:33;100395.78;;;-3.65;63.96
33496;BME280;19836;55.812;37.560;2022-12-20T05:48:06;100388.66;;;-3.69;64.50
33496;BME280;19836;55.812;37.560;2022-12-20T05:50:34;100395.78;;;-3.65;65.19
33496;BME280;19836;55.812;37.560;2022-12-20T05:53:26;100392.59;;;-3.57;64.77
33496;BME280;19836;55.812;37.560;2022-12-20T05:55:57;100392.66;;;-3.55;64.42
33496;BME280;19836;55.812;37.560;2022-12-20T05:58:27;100392.66;;;-3.55;64.38
33496;BME280;19836;55.812;37.560;2022-12-20T06:01:02;100387.38;;;-3.57;64.36
33496;BME280;19836;55.812;37.560;2022-12-20T06:03:32;100390.97;;;-3.53;64.57
33496;BME280;19836;55.812;37.560;2022-12-20T06:06:00;100384.81;;;-3.55;64.80
33496;BME280;19836;55.812;37.560;2022-12-20T06:08:29;100372.66;;;-3.53;64.54
33496;BME280;19836;55.812;37.560;2022-12-20T06:10:57;100370.16;;;-3.50;64.74
33496;BME280;19836;55.812;37.560;2022-12-20T06:13:27;100376.31;;;-3.48;64.53
33496;BME280;19836;55.812;37.560;2022-12-20T06:15:53;100377.16;;;-3.49;64.77
33496;BME280;19836;55.812;37.560;2022-12-20T06:18:20;100372.66;;;-3.53;64.18
33496;BME280;19836;55.812;37.560;2022-12-20T06:20:54;100378.94;;;-3.48;64.17
33496;BME280;19836;55.812;37.560;2022-12-20T06:23:24;100370.25;;;-3.47;64.11
33496;BME280;19836;55.812;37.560;2022-12-20T06:26:01;100378.72;;;-3.54;64.04
33496;BME280;19836;55.812;37.560;2022-12-20T06:28:32;100368.25;;;-3.54;63.65
33496;BME280;19836;55.812;37.560;2022-12-20T06:30:58;100365.59;;;-3.56;63.84
33496;BME280;19836;55.812;37.560;2022-12-20T06:33:54;100355.28;;;-3.51;64.17
33496;BME280;19836;55.812;37.560;2022-12-20T06:36:22;100356.94;;;-3.53;63.41
33496;BME280;19836;55.812;37.560;2022-12-20T06:38:51;100355.09;;;-3.56;63.12
33496;BME280;19836;55.812;37.560;2022-12-20T06:41:17;100344.50;;;-3.60;63.09
33496;BME280;19836;55.812;37.560;2022-12-20T06:43:44;100340.19;;;-3.58;63.39
33496;BME280;19836;55.812;37.560;2022-12-20T06:46:10;100343.69;;;-3.58;63.27
33496;BME280;19836;55.812;37.560;2022-12-20T06:48:38;100335.78;;;-3.59;62.92
33496;BME280;19836;55.812;37.560;2022-12-20T06:51:06;100332.06;;;-3.66;63.14
33496;BME280;19836;55.812;37.560;2022-12-20T06:53:32;100313.59;;;-3.70;63.13
33496;BME280;19836;55.812;37.560;2022-12-20T06:55:58;100313.59;;;-3.70;62.88
33496;BME280;19836;55.812;37.560;2022-12-20T06:58:24;100311.75;;;-3.72;63.25
33496;BME280;19836;55.812;37.560;2022-12-20T07:00:50;100309.06;;;-3.74;62.54
33496;BME280;19836;55.812;37.560;2022-12-20T07:03:16;100302.13;;;-3.73;63.44
33496;BME280;19836;55.812;37.560;2022-12-20T07:05:42;100299.53;;;-3.72;63.48
33496;BME280;19836;55.812;37.560;2022-12-20T07:08:08;100289.97;;;-3.72;63.51
33496;BME280;19836;55.812;37.560;2022-12-20T07:10:35;100289.66;;;-3.81;63.40
33496;BME280;19836;55.812;37.560;2022-12-20T07:13:02;100279.13;;;-3.82;63.05
33496;BME280;19836;55.812;37.560;2022-12-20T07:15:28;100278.19;;;-3.84;62.58
33496;BME280;19836;55.812;37.560;2022-12-20T07:17:54;100275.41;;;-3.88;62.78
33496;BME280;19836;55.812;37.560;2022-12-20T07:20:20;100267.44;;;-3.92;62.61
33496;BME280;19836;55.812;37.560;2022-12-20T07:22:47;100262.16;;;-3.93;62.63
33496;BME280;19836;55.812;37.560;2022-12-20T07:25:13;100264.72;;;-3.95;62.95
33496;BME280;19836;55.812;37.560;2022-12-20T07:27:39;100263.94;;;-3.92;62.87
33496;BME280;19836;55.812;37.560;2022-12-20T07:30:06;100239.66;;;-3.88;63.14
33496;BME280;19836;55.812;37.560;2022-12-20T07:32:32;100225.72;;;-3.87;62.92
33496;BME280;19836;55.812;37.560;2022-12-20T07:34:58;100229.19;;;-3.88;62.57
33496;BME280;19836;55.812;37.560;2022-12-20T07:37:28;100218.66;;;-3.90;62.53
33496;BME280;19836;55.812;37.560;2022-12-20T07:39:54;100211.66;;;-3.91;63.03
33496;BME280;19836;55.812;37.560;2022-12-20T07:42:20;100201.31;;;-3.88;62.30
33496;BME280;19836;55.812;37.560;2022-12-20T07:44:48;100194.38;;;-3.86;62.04
33496;BME280;19836;55.812;37.560;2022-12-20T07:47:15;100201.44;;;-3.83;61.74
33496;BME280;19836;55.812;37.560;2022-12-20T07:49:41;100186.66;;;-3.83;61.25
33496;BME280;19836;55.812;37.560;2022-12-20T07:52:09;100180.44;;;-3.85;61.52
33496;BME280;19836;55.812;37.560;2022-12-20T07:54:41;100177.94;;;-3.82;61.00
33496;BME280;19836;55.812;37.560;2022-12-20T07:57:37;100173.63;;;-3.81;61.46
33496;BME280;19836;55.812;37.560;2022-12-20T08:00:02;100161.47;;;-3.79;61.11
33496;BME280;19836;55.812;37.560;2022-12-20T08:02:41;100164.31;;;-3.72;60.42
33496;BME280;19836;55.812;37.560;2022-12-20T08:05:09;100152.69;;;-3.81;60.11
33496;BME280;19836;55.812;37.560;2022-12-20T08:07:36;100131.69;;;-3.83;60.60
33496;BME280;19836;55.812;37.560;2022-12-20T08:10:06;100146.66;;;-3.78;60.56
33496;BME280;19836;55.812;37.560;2022-12-20T08:12:34;100142.41;;;-3.75;60.39
33496;BME280;19836;55.812;37.560;2022-12-20T08:15:00;100142.47;;;-3.72;60.90
33496;BME280;19836;55.812;37.560;2022-12-20T08:17:25;100153.84;;;-3.72;60.30
33496;BME280;19836;55.812;37.560;2022-12-20T08:19:51;100149.53;;;-3.71;59.83
33496;BME280;19836;55.812;37.560;2022-12-20T08:22:18;100150.59;;;-3.65;59.98
33496;BME280;19836;55.812;37.560;2022-12-20T08:24:44;100148.00;;;-3.63;60.01
33496;BME280;19836;55.812;37.560;2022-12-20T08:27:11;100153.25;;;-3.63;60.18
33496;BME280;19836;55.812;37.560;2022-12-20T08:29:37;100146.38;;;-3.60;59.81
33496;BME280;19836;55.812;37.560;2022-12-20T08:32:03;100146.50;;;-3.57;60.23
33496;BME280;19836;55.812;37.560;2022-12-20T08:34:29;100129.06;;;-3.56;59.81
33496;BME280;19836;55.812;37.560;2022-12-20T08:36:55;100127.38;;;-3.54;59.49
33496;BME280;19836;55.812;37.560;2022-12-20T08:39:21;100125.69;;;-3.52;60.13
33496;BME280;19836;55.812;37.560;2022-12-20T08:41:47;100129.25;;;-3.50;60.06
33496;BME280;19836;55.812;37.560;2022-12-20T08:44:13;100134.53;;;-3.48;59.58
33496;BME280;19836;55.812;37.560;2022-12-20T08:46:42;100114.34;;;-3.53;59.91
33496;BME280;19836;55.812;37.560;2022-12-20T08:49:08;100117.56;;;-3.60;59.93
33496;BME280;19836;55.812;37.560;2022-12-20T08:51:37;100119.34;;;-3.60;59.85
33496;BME280;19836;55.812;37.560;2022-12-20T08:54:05;100112.34;;;-3.60;60.14
33496;BME280;19836;55.812;37.560;2022-12-20T08:56:32;100107.22;;;-3.57;59.70
33496;BME280;19836;55.812;37.560;2022-12-20T08:58:58;100115.03;;;-3.58;59.38
33496;BME280;19836;55.812;37.560;2022-12-20T09:01:24;100104.34;;;-3.64;59.23
33496;BME280;19836;55.812;37.560;2022-12-20T09:03:51;100092.91;;;-3.67;59.66
33496;BME280;19836;55.812;37.560;2022-12-20T09:06:21;100085.00;;;-3.69;59.63
33496;BME280;19836;55.812;37.560;2022-12-20T09:08:48;100075.63;;;-3.63;59.54
33496;BME280;19836;55.812;37.560;2022-12-20T09:11:17;100063.50;;;-3.31;60.01
33496;BME280;19836;55.812;37.560;2022-12-20T09:13:45;100064.28;;;-3.04;59.05
33496;BME280;19836;55.812;37.560;2022-12-20T09:16:13;100068.19;;;-2.90;58.73
33496;BME280;19836;55.812;37.560;2022-12-20T09:18:42;100059.19;;;-2.68;58.93
33496;BME280;19836;55.812;37.560;2022-12-20T09:21:09;100042.25;;;-2.47;58.51
33496;BME280;19836;55.812;37.560;2022-12-20T09:23:36;100040.06;;;-2.31;58.25
33496;BME280;19836;55.812;37.560;2022-12-20T09:26:07;100031.53;;;-2.56;57.69
33496;BME280;19836;55.812;37.560;2022-12-20T09:28:35;100020.91;;;-2.61;57.79
33496;BME280;19836;55.812;37.560;2022-12-20T09:31:04;100030.31;;;-2.35;57.79
33496;BME280;19836;55.812;37.560;2022-12-20T09:33:31;100028.78;;;-1.91;57.62
33496;BME280;19836;55.812;37.560;2022-12-20T09:35:58;100016.72;;;-1.45;57.29
33496;BME280;19836;55.812;37.560;2022-12-20T09:38:25;100004.47;;;-1.01;57.11
33496;BME280;19836;55.812;37.560;2022-12-20T09:41:05;99985.53;;;-0.85;56.06
33496;BME280;19836;55.812;37.560;2022-12-20T09:43:33;99985.34;;;-0.94;55.68
33496;BME280;19836;55.812;37.560;2022-12-20T09:46:02;99990.19;;;-1.15;55.48
33496;BME280;19836;55.812;37.560;2022-12-20T09:48:37;99988.13;;;-0.87;55.87
33496;BME280;19836;55.812;37.560;2022-12-20T09:56:45;99954.44;;;2.53;52.63
33496;BME280;19836;55.812;37.560;2022-12-20T09:59:14;99949.19;;;2.62;51.04
33496;BME280;19836;55.812;37.560;2022-12-20T10:01:43;99942.19;;;2.81;50.50
33496;BME280;19836;55.812;37.560;2022-12-20T10:04:30;99934.31;;;2.93;50.00
33496;BME280;19836;55.812;37.560;2022-12-20T10:15:45;99919.31;;;2.95;46.26
33496;BME280;19836;55.812;37.560;2022-12-20T10:18:35;99903.25;;;2.39;46.28
33496;BME280;19836;55.812;37.560;2022-12-20T10:21:12;99916.06;;;1.76;46.63
33496;BME280;19836;55.812;37.560;2022-12-20T10:24:02;99899.34;;;1.77;47.93
33496;BME280;19836;55.812;37.560;2022-12-20T10:26:29;99895.19;;;2.14;48.05
33496;BME280;19836;55.812;37.560;2022-12-20T10:28:56;99891.56;;;2.00;47.98
33496;BME280;19836;55.812;37.560;2022-12-20T10:31:21;99895.00;;;1.81;47.84
33496;BME280;19836;55.812;37.560;2022-12-20T10:33:47;99892.75;;;1.23;47.40
33496;BME280;19836;55.812;37.560;2022-12-20T10:36:31;99887.69;;;0.60;47.78
33496;BME280;19836;55.812;37.560;2022-12-20T10:38:59;99888.84;;;0.12;47.99
33496;BME280;19836;55.812;37.560;2022-12-20T10:41:31;99875.88;;;0.30;48.61
33496;BME280;19836;55.812;37.560;2022-12-20T10:44:03;99880.97;;;0.88;48.26
33496;BME280;19836;55.812;37.560;2022-12-20T10:46:40;99868.81;;;1.02;48.03
33496;BME280;19836;55.812;37.560;2022-12-20T10:51:53;99852.00;;;2.12;47.42
33496;BME280;19836;55.812;37.560;2022-12-20T10:54:23;99841.19;;;1.70;46.86
33496;BME280;19836;55.812;37.560;2022-12-20T10:57:01;99853.66;;;0.83;46.74
33496;BME280;19836;55.812;37.560;2022-12-20T11:01:56;99855.56;;;-0.44;48.49
33496;BME280;19836;55.812;37.560;2022-12-20T11:04:31;99855.03;;;-0.77;48.91
33496;BME280;19836;55.812;37.560;2022-12-20T11:07:00;99863.50;;;-0.95;49.57
33496;BME280;19836;55.812;37.560;2022-12-20T11:09:35;99856.69;;;-1.31;50.35
33496;BME280;19836;55.812;37.560;2022-12-20T11:12:03;99863.44;;;-1.47;50.72
33496;BME280;19836;55.812;37.560;2022-12-20T11:14:31;99866.09;;;-1.45;51.04
33496;BME280;19836;55.812;37.560;2022-12-20T11:16:58;99866.13;;;-1.42;51.27
33496;BME280;19836;55.812;37.560;2022-12-20T11:22:51;99852.06;;;-1.46;51.74
33496;BME280;19836;55.812;37.560;2022-12-20T11:36:21;99851.81;;;-1.59;52.90
33496;BME280;19836;55.812;37.560;2022-12-20T11:39:19;99842.09;;;-1.63;52.58
33496;BME280;19836;55.812;37.560;2022-12-20T11:41:57;99830.53;;;-1.71;52.91
33496;BME280;19836;55.812;37.560;2022-12-20T11:50:03;99846.72;;;-1.93;53.36
33496;BME280;19836;55.812;37.560;2022-12-20T11:52:59;99853.34;;;-2.12;53.93
33496;BME280;19836;55.812;37.560;2022-12-20T11:55:31;99850.38;;;-2.27;53.87
33496;BME280;19836;55.812;37.560;2022-12-20T11:58:02;99856.09;;;-2.44;53.93
33496;BME280;19836;55.812;37.560;2022-12-20T12:00:32;99843.41;;;-2.63;54.38
33496;BME280;19836;55.812;37.560;2022-12-20T12:03:10;99843.06;;;-2.78;54.84
33496;BME280;19836;55.812;37.560;2022-12-20T12:08:10;99851.84;;;-3.12;55.33
33496;BME280;19836;55.812;37.560;2022-12-20T12:10:44;99830.59;;;-3.22;55.42
33496;BME280;19836;55.812;37.560;2022-12-20T12:13:17;99836.66;;;-3.25;55.77
33496;BME280;19836;55.812;37.560;2022-12-20T12:16:00;99827.84;;;-3.28;56.57
33496;BME280;19836;55.812;37.560;2022-12-20T12:18:30;99825.22;;;-3.28;56.49
33496;BME280;19836;55.812;37.560;2022-12-20T12:26:27;99841.53;;;-3.38;57.26
33496;BME280;19836;55.812;37.560;2022-12-20T12:29:14;99838.63;;;-3.50;57.24
33496;BME280;19836;55.812;37.560;2022-12-20T12:40:29;99840.97;;;-3.59;58.37
33496;BME280;19836;55.812;37.560;2022-12-20T12:45:55;99844.09;;;-3.72;58.16
33496;BME280;19836;55.812;37.560;2022-12-20T12:51:00;99838.63;;;-3.81;58.67
33496;BME280;19836;55.812;37.560;2022-12-20T12:54:21;99836.84;;;-3.82;58.69
33496;BME280;19836;55.812;37.560;2022-12-20T13:09:35;99841.09;;;-3.86;59.96
33496;BME280;19836;55.812;37.560;2022-12-20T13:17:49;99825.78;;;-4.03;59.31
33496;BME280;19836;55.812;37.560;2022-12-20T13:25:45;99820.28;;;-4.12;60.67
33496;BME280;19836;55.812;37.560;2022-12-20T13:33:47;99823.22;;;-4.31;60.88
33496;BME280;19836;55.812;37.560;2022-12-20T13:36:30;99833.59;;;-4.34;61.44
33496;BME280;19836;55.812;37.560;2022-12-20T13:41:50;99827.22;;;-4.42;61.64
33496;BME280;19836;55.812;37.560;2022-12-20T13:44:25;99837.91;;;-4.36;61.21
33496;BME280;19836;55.812;37.560;2022-12-20T13:49:46;99828.47;;;-4.31;61.66
33496;BME280;19836;55.812;37.560;2022-12-20T13:52:33;99823.97;;;-4.35;61.47
33496;BME280;19836;55.812;37.560;2022-12-20T13:55:14;99822.44;;;-4.28;61.23
33496;BME280;19836;55.812;37.560;2022-12-20T13:57:43;99830.44;;;-4.22;61.33
33496;BME280;19836;55.812;37.560;2022-12-20T14:00:26;99833.94;;;-4.22;61.72
33496;BME280;19836;55.812;37.560;2022-12-20T14:02:53;99835.72;;;-4.21;61.46
33496;BME280;19836;55.812;37.560;2022-12-20T14:05:20;99835.72;;;-4.21;61.30
33496;BME280;19836;55.812;37.560;2022-12-20T14:07:54;99824.28;;;-4.25;62.41
33496;BME280;19836;55.812;37.560;2022-12-20T14:10:26;99819.88;;;-4.26;61.76
33496;BME280;19836;55.812;37.560;2022-12-20T14:12:54;99813.81;;;-4.25;61.89
33496;BME280;19836;55.812;37.560;2022-12-20T14:15:28;99810.19;;;-4.30;61.99
33496;BME280;19836;55.812;37.560;2022-12-20T14:17:54;99818.75;;;-4.35;62.38
33496;BME280;19836;55.812;37.560;2022-12-20T14:20:32;99815.97;;;-4.40;62.64
33496;BME280;19836;55.812;37.560;2022-12-20T14:23:11;99817.00;;;-4.35;62.42
33496;BME280;19836;55.812;37.560;2022-12-20T14:26:06;99808.38;;;-4.32;62.34
33496;BME280;19836;55.812;37.560;2022-12-20T14:28:39;99802.97;;;-4.38;62.03
33496;BME280;19836;55.812;37.560;2022-12-20T14:31:22;99816.78;;;-4.42;62.34
33496;BME280;19836;55.812;37.560;2022-12-20T14:33:48;99813.13;;;-4.48;62.42
33496;BME280;19836;55.812;37.560;2022-12-20T14:38:43;99818.19;;;-4.53;62.98
33496;BME280;19836;55.812;37.560;2022-12-20T14:41:35;99816.44;;;-4.54;62.70
33496;BME280;19836;55.812;37.560;2022-12-20T14:46:32;99821.53;;;-4.57;63.49
33496;BME280;19836;55.812;37.560;2022-12-20T14:49:21;99821.59;;;-4.56;63.97
33496;BME280;19836;55.812;37.560;2022-12-20T14:51:49;99820.53;;;-4.62;63.32
33496;BME280;19836;55.812;37.560;2022-12-20T14:54:20;99815.84;;;-4.72;63.65
33496;BME280;19836;55.812;37.560;2022-12-20T14:56:48;99818.41;;;-4.75;64.05
33496;BME280;19836;55.812;37.560;2022-12-20T14:59:22;99805.97;;;-4.82;63.92
33496;BME280;19836;55.812;37.560;2022-12-20T15:01:51;99822.66;;;-4.78;63.58